createdAt,value
2017-09-08T00:01:49.930Z,16.60
2017-09-08T00:04:18.303Z,16.60
2017-09-08T00:06:46.671Z,16.60
2017-09-08T00:09:15.030Z,16.60
2017-09-08T00:11:43.047Z,16.60
2017-09-08T00:14:11.422Z,16.60
2017-09-08T00:16:41.439Z,16.60
2017-09-08T00:19:09.804Z,16.60
2017-09-08T00:21:38.174Z,16.60
2017-09-08T00:24:06.536Z,16.60
2017-09-08T00:26:35.404Z,16.60
2017-09-08T00:29:03.757Z,16.60
2017-09-08T00:31:32.119Z,16.60
2017-09-08T00:34:00.487Z,16.60
2017-09-08T00:36:28.844Z,16.70
2017-09-08T00:38:57.227Z,16.70
2017-09-08T00:41:25.583Z,16.70
2017-09-08T00:43:53.590Z,16.70
2017-09-08T00:46:22.709Z,16.60
2017-09-08T00:48:51.291Z,16.60
2017-09-08T00:51:19.649Z,16.60
2017-09-08T00:53:48.011Z,16.60
2017-09-08T00:56:17.136Z,16.60
2017-09-08T00:58:45.713Z,16.60
2017-09-08T01:01:14.074Z,16.70
2017-09-08T01:03:42.089Z,16.60
2017-09-08T01:06:10.442Z,16.60
2017-09-08T01:08:38.813Z,16.60
2017-09-08T01:11:06.826Z,16.60
2017-09-08T01:13:35.199Z,16.60
2017-09-08T01:16:03.600Z,16.60
2017-09-08T01:18:31.951Z,16.60
2017-09-08T01:21:00.334Z,16.60
2017-09-08T01:23:28.712Z,16.50
2017-09-08T01:25:57.075Z,16.60
2017-09-08T01:28:26.264Z,16.50
2017-09-08T01:30:54.618Z,16.50
2017-09-08T01:33:23.202Z,16.50
2017-09-08T01:35:51.662Z,16.50
2017-09-08T01:38:20.347Z,16.50
2017-09-08T01:40:48.735Z,16.50
2017-09-08T01:43:17.086Z,16.50
2017-09-08T01:45:45.531Z,16.50
2017-09-08T01:48:13.882Z,16.50
2017-09-08T01:50:42.255Z,16.40
2017-09-08T01:53:10.419Z,16.50
2017-09-08T01:55:38.777Z,16.50
2017-09-08T01:58:07.352Z,16.50
2017-09-08T02:00:35.734Z,16.50
2017-09-08T02:03:04.099Z,16.50
2017-09-08T02:05:32.465Z,16.60
2017-09-08T02:08:00.830Z,16.60
2017-09-08T02:10:30.153Z,16.60
2017-09-08T02:12:58.534Z,16.60
2017-09-08T02:15:26.878Z,16.60
2017-09-08T02:17:56.016Z,16.60
2017-09-08T02:20:24.383Z,16.50
2017-09-08T02:22:52.815Z,16.60
2017-09-08T02:25:21.232Z,16.60
2017-09-08T02:27:49.715Z,16.50
2017-09-08T02:30:18.392Z,16.50
2017-09-08T02:32:46.744Z,16.50
2017-09-08T02:35:15.119Z,16.40
2017-09-08T02:37:43.930Z,16.40
2017-09-08T02:40:12.312Z,16.50
2017-09-08T02:42:40.990Z,16.40
2017-09-08T02:45:09.347Z,16.50
2017-09-08T02:47:38.462Z,16.50
2017-09-08T02:50:06.830Z,16.50
2017-09-08T02:52:35.308Z,16.40
2017-09-08T02:55:03.681Z,16.40
2017-09-08T02:57:32.030Z,16.40
2017-09-08T03:00:00.402Z,16.40
2017-09-08T03:02:28.814Z,16.40
2017-09-08T03:04:57.505Z,16.40
2017-09-08T03:07:25.875Z,16.40
2017-09-08T03:09:54.350Z,16.40
2017-09-08T03:12:22.730Z,16.40
2017-09-08T03:14:51.105Z,16.40
2017-09-08T03:17:19.459Z,16.40
2017-09-08T03:19:47.818Z,16.30
2017-09-08T03:22:16.959Z,16.40
2017-09-08T03:24:45.527Z,16.30
2017-09-08T03:27:13.896Z,16.40
2017-09-08T03:29:42.308Z,16.30
2017-09-08T03:32:10.683Z,16.30
2017-09-08T03:34:39.066Z,16.30
2017-09-08T03:37:07.443Z,16.30
2017-09-08T03:39:35.817Z,16.30
2017-09-08T03:42:04.366Z,16.30
2017-09-08T03:44:32.730Z,16.40
2017-09-08T03:47:01.102Z,16.30
2017-09-08T03:49:29.549Z,16.30
2017-09-08T03:51:57.923Z,16.30
2017-09-08T03:54:26.293Z,16.40
2017-09-08T03:56:54.621Z,16.40
2017-09-08T03:59:22.984Z,16.40
2017-09-08T04:01:51.351Z,16.30
2017-09-08T04:04:20.169Z,16.30
2017-09-08T04:06:48.532Z,16.30
2017-09-08T04:09:17.448Z,16.30
2017-09-08T04:11:46.559Z,16.30
2017-09-08T04:14:14.940Z,16.30
2017-09-08T04:16:43.172Z,16.30
2017-09-08T04:19:11.345Z,16.30
2017-09-08T04:21:39.811Z,16.30
2017-09-08T04:24:08.157Z,16.30
2017-09-08T04:26:37.432Z,16.30
2017-09-08T04:29:05.799Z,16.30
2017-09-08T04:31:34.162Z,16.30
2017-09-08T04:34:02.519Z,16.30
2017-09-08T04:36:30.937Z,16.30
2017-09-08T04:38:59.307Z,16.30
2017-09-08T04:41:27.684Z,16.30
2017-09-08T04:43:56.757Z,16.30
2017-09-08T04:46:25.113Z,16.30
2017-09-08T04:48:53.483Z,16.30
2017-09-08T04:51:22.049Z,16.30
2017-09-08T04:53:51.186Z,16.30
2017-09-08T04:56:19.539Z,16.30
2017-09-08T04:58:49.359Z,16.30
2017-09-08T05:01:18.341Z,16.30
2017-09-08T05:03:46.730Z,16.30
2017-09-08T05:06:15.138Z,16.30
2017-09-08T05:08:43.768Z,16.30
2017-09-08T05:11:12.124Z,16.30
2017-09-08T05:13:40.323Z,16.30
2017-09-08T05:16:08.684Z,16.30
2017-09-08T05:18:37.076Z,16.30
2017-09-08T05:21:05.546Z,16.30
2017-09-08T05:23:33.907Z,16.30
2017-09-08T05:26:02.296Z,16.40
2017-09-08T05:28:30.679Z,16.30
2017-09-08T05:30:58.877Z,16.30
2017-09-08T05:33:28.903Z,16.40
2017-09-08T05:35:57.341Z,16.30
2017-09-08T05:38:25.716Z,16.40
2017-09-08T05:40:54.094Z,16.30
2017-09-08T05:43:22.544Z,16.40
2017-09-08T05:45:51.668Z,16.40
2017-09-08T05:48:20.046Z,16.40
2017-09-08T05:50:48.430Z,16.40
2017-09-08T05:53:16.774Z,16.40
2017-09-08T05:55:45.266Z,16.50
2017-09-08T05:58:13.644Z,16.50
2017-09-08T06:00:42.330Z,16.40
2017-09-08T06:03:10.684Z,16.50
2017-09-08T06:05:39.033Z,16.50
2017-09-08T06:21:41.813Z,16.50
2017-09-08T06:24:11.711Z,16.50
2017-09-08T06:26:40.067Z,16.50
2017-09-08T06:29:09.386Z,16.50
2017-09-08T06:31:37.748Z,16.50
2017-09-08T06:34:06.939Z,16.50
2017-09-08T06:36:36.533Z,16.60
2017-09-08T06:39:04.006Z,16.60
2017-09-08T06:41:33.179Z,16.50
2017-09-08T06:44:01.534Z,16.50
2017-09-08T06:46:30.559Z,16.50
2017-09-08T06:48:58.927Z,16.50
2017-09-08T06:51:27.286Z,16.60
2017-09-08T06:53:56.488Z,16.70
2017-09-08T06:56:24.874Z,16.70
2017-09-08T06:58:53.252Z,16.70
2017-09-08T07:01:21.635Z,16.70
2017-09-08T07:03:50.172Z,16.80
2017-09-08T07:06:19.831Z,16.80
2017-09-08T07:08:48.637Z,16.80
2017-09-08T07:11:17.034Z,16.80
2017-09-08T07:13:47.837Z,16.90
2017-09-08T07:16:16.025Z,16.90
2017-09-08T07:18:44.377Z,16.90
2017-09-08T07:21:12.759Z,16.90
2017-09-08T07:23:41.120Z,16.90
2017-09-08T07:26:09.568Z,17.00
2017-09-08T07:28:37.935Z,17.00
2017-09-08T07:31:06.303Z,17.10
2017-09-08T07:33:34.681Z,17.10
2017-09-08T07:36:03.040Z,17.20
2017-09-08T07:38:32.183Z,17.10
2017-09-08T07:41:00.597Z,17.10
2017-09-08T07:43:30.154Z,17.10
2017-09-08T07:45:58.506Z,17.10
2017-09-08T07:48:27.747Z,17.10
2017-09-08T07:50:56.131Z,17.10
2017-09-08T07:53:24.518Z,17.10
2017-09-08T07:55:52.918Z,17.10
2017-09-08T07:58:21.438Z,17.20
2017-09-08T08:00:49.911Z,17.10
2017-09-08T08:03:18.340Z,17.20
2017-09-08T08:05:47.506Z,17.10
2017-09-08T08:08:15.982Z,17.20
2017-09-08T08:10:46.974Z,17.20
2017-09-08T08:13:19.062Z,17.10
2017-09-08T08:15:47.431Z,17.20
2017-09-08T08:18:15.823Z,17.10
2017-09-08T08:20:44.333Z,17.00
2017-09-08T08:23:12.707Z,17.00
2017-09-08T08:25:41.066Z,17.00
2017-09-08T08:28:09.442Z,17.00
2017-09-08T08:30:37.805Z,17.00
2017-09-08T08:33:06.181Z,16.90
2017-09-08T08:35:34.562Z,16.90
2017-09-08T08:38:02.941Z,16.90
2017-09-08T08:40:31.318Z,16.90
2017-09-08T08:42:59.694Z,17.00
2017-09-08T08:45:28.291Z,17.10
2017-09-08T08:47:56.690Z,17.10
2017-09-08T08:50:25.211Z,17.20
2017-09-08T08:52:53.714Z,17.30
2017-09-08T08:55:22.088Z,17.40
2017-09-08T08:57:52.230Z,17.50
2017-09-08T09:00:23.143Z,17.60
2017-09-08T09:02:51.500Z,17.60
2017-09-08T09:05:19.855Z,17.80
2017-09-08T09:07:48.344Z,17.80
2017-09-08T09:10:16.835Z,17.80
2017-09-08T09:12:45.212Z,17.80
2017-09-08T09:15:14.066Z,17.90
2017-09-08T09:17:42.415Z,17.90
2017-09-08T09:20:11.726Z,17.90
2017-09-08T09:35:35.761Z,18.00
2017-09-08T09:38:04.118Z,18.10
2017-09-08T09:40:32.507Z,18.10
2017-09-08T09:43:00.874Z,18.10
2017-09-08T09:45:29.249Z,18.10
2017-09-08T09:47:57.617Z,18.00
2017-09-08T09:50:26.159Z,18.00
2017-09-08T09:52:54.329Z,17.90
2017-09-08T09:55:23.612Z,17.90
2017-09-08T09:57:52.956Z,17.90
2017-09-08T10:00:21.355Z,17.80
2017-09-08T10:02:49.789Z,17.90
2017-09-08T10:05:18.182Z,17.80
2017-09-08T10:07:48.292Z,17.80
2017-09-08T10:23:11.658Z,17.90
2017-09-08T10:25:40.055Z,18.00
2017-09-08T10:28:09.396Z,18.00
2017-09-08T10:30:37.776Z,17.90
2017-09-08T10:33:06.147Z,17.90
2017-09-08T10:35:34.387Z,17.80
2017-09-08T10:38:03.656Z,17.60
2017-09-08T10:40:32.034Z,17.50
2017-09-08T10:43:01.183Z,17.20
2017-09-08T10:45:30.194Z,16.90
2017-09-08T10:48:00.881Z,16.50
2017-09-08T10:50:29.222Z,16.30
2017-09-08T10:52:58.203Z,16.20
2017-09-08T10:55:28.595Z,16.10
2017-09-08T10:57:56.953Z,16.10
2017-09-08T11:00:26.856Z,16.10
2017-09-08T11:02:55.219Z,16.10
2017-09-08T11:05:24.363Z,15.90
2017-09-08T11:07:52.737Z,15.90
2017-09-08T11:10:22.238Z,15.90
2017-09-08T11:12:51.407Z,15.80
2017-09-08T11:15:19.757Z,15.80
2017-09-08T11:17:48.131Z,15.80
2017-09-08T11:20:16.550Z,15.80
2017-09-08T11:22:44.933Z,15.80
2017-09-08T11:25:13.672Z,15.80
2017-09-08T11:27:42.193Z,15.80
2017-09-08T11:30:10.687Z,15.80
2017-09-08T11:32:44.575Z,15.80
2017-09-08T11:35:18.297Z,15.70
2017-09-08T11:37:46.655Z,15.70
2017-09-08T11:40:15.029Z,15.70
2017-09-08T11:42:43.387Z,15.70
2017-09-08T11:45:11.779Z,15.70
2017-09-08T11:47:40.666Z,15.70
2017-09-08T11:50:09.649Z,15.70
2017-09-08T11:52:38.033Z,15.70
2017-09-08T11:55:06.616Z,15.70
2017-09-08T11:57:34.974Z,15.70
2017-09-08T12:00:02.988Z,15.80
2017-09-08T12:02:31.342Z,15.80
2017-09-08T12:04:59.923Z,15.90
2017-09-08T12:07:28.289Z,16.00
2017-09-08T12:09:56.669Z,16.00
2017-09-08T12:12:25.060Z,16.10
2017-09-08T12:14:53.439Z,16.10
2017-09-08T12:17:21.798Z,16.20
2017-09-08T12:19:51.248Z,16.10
2017-09-08T12:22:19.679Z,16.10
2017-09-08T12:24:48.082Z,16.20
2017-09-08T12:27:16.428Z,16.20
2017-09-08T12:29:44.940Z,16.30
2017-09-08T12:32:13.439Z,16.40
2017-09-08T12:34:41.810Z,16.40
2017-09-08T12:37:10.209Z,16.50
2017-09-08T12:39:38.563Z,16.40
2017-09-08T12:42:08.369Z,16.30
2017-09-08T12:44:37.581Z,16.30
2017-09-08T12:47:05.966Z,16.20
2017-09-08T12:49:34.355Z,16.20
2017-09-08T12:52:02.717Z,16.10
2017-09-08T12:54:31.080Z,16.10
2017-09-08T12:56:59.460Z,16.10
2017-09-08T12:59:27.849Z,16.10
2017-09-08T13:01:56.296Z,16.10
2017-09-08T13:04:25.058Z,16.10
2017-09-08T13:06:53.514Z,16.10
2017-09-08T13:09:21.892Z,16.10
2017-09-08T13:11:50.313Z,16.10
2017-09-08T13:14:18.667Z,16.10
2017-09-08T13:16:47.076Z,16.10
2017-09-08T13:19:15.234Z,16.10
2017-09-08T13:21:43.408Z,16.10
2017-09-08T13:24:11.984Z,16.20
2017-09-08T13:26:40.366Z,16.20
2017-09-08T13:29:08.744Z,16.20
2017-09-08T13:31:37.133Z,16.30
2017-09-08T13:34:06.295Z,16.30
2017-09-08T13:36:34.679Z,16.30
2017-09-08T13:39:03.033Z,16.30
2017-09-08T13:41:31.806Z,16.30
2017-09-08T13:44:00.385Z,16.30
2017-09-08T13:46:28.732Z,16.40
2017-09-08T13:48:57.595Z,16.40
2017-09-08T13:51:26.030Z,16.30
2017-09-08T13:53:54.394Z,16.30
2017-09-08T13:56:22.780Z,16.30
2017-09-08T13:58:51.162Z,16.40
2017-09-08T14:01:19.626Z,16.40
2017-09-08T14:03:48.003Z,16.40
2017-09-08T14:06:16.691Z,16.40
2017-09-08T14:08:45.041Z,16.50
2017-09-08T14:11:13.422Z,16.50
2017-09-08T14:13:41.776Z,16.50
2017-09-08T14:16:10.907Z,16.60
2017-09-08T14:18:39.494Z,16.60
2017-09-08T14:21:07.879Z,16.60
2017-09-08T14:23:38.664Z,16.60
2017-09-08T14:26:08.231Z,16.50
2017-09-08T14:28:38.128Z,16.40
2017-09-08T14:31:06.385Z,16.40
2017-09-08T14:33:34.744Z,16.30
2017-09-08T14:36:03.170Z,16.30
2017-09-08T14:38:31.618Z,16.20
2017-09-08T14:41:00.028Z,16.20
2017-09-08T14:43:28.678Z,16.10
2017-09-08T14:45:57.055Z,16.00
2017-09-08T14:48:25.494Z,16.00
2017-09-08T14:50:54.753Z,15.90
2017-09-08T14:53:23.154Z,15.90
2017-09-08T14:55:51.598Z,15.90
2017-09-08T14:58:19.968Z,15.90
2017-09-08T15:00:48.807Z,15.90
2017-09-08T15:03:17.169Z,15.90
2017-09-08T15:05:45.585Z,15.90
2017-09-08T15:08:15.301Z,15.90
2017-09-08T15:10:43.689Z,15.90
2017-09-08T15:13:13.677Z,16.00
2017-09-08T15:15:42.294Z,15.90
2017-09-08T15:18:13.061Z,15.90
2017-09-08T15:20:42.197Z,15.80
2017-09-08T15:23:10.241Z,15.80
2017-09-08T15:25:38.605Z,15.80
2017-09-08T15:28:07.327Z,15.80
2017-09-08T15:30:35.702Z,15.80
2017-09-08T15:33:04.898Z,15.70
2017-09-08T15:35:33.335Z,15.70
2017-09-08T15:38:01.711Z,15.60
2017-09-08T15:40:30.336Z,15.60
2017-09-08T15:42:58.716Z,15.60
2017-09-08T15:45:27.163Z,15.50
2017-09-08T15:47:56.320Z,15.40
2017-09-08T15:50:24.707Z,15.30
2017-09-08T15:52:53.079Z,15.30
2017-09-08T15:55:21.510Z,15.20
2017-09-08T15:57:49.988Z,15.10
2017-09-08T16:00:18.576Z,15.10
2017-09-08T16:02:46.946Z,15.00
2017-09-08T16:05:15.340Z,15.00
2017-09-08T16:07:43.732Z,15.00
2017-09-08T16:10:13.175Z,14.90
2017-09-08T16:12:41.554Z,14.90
2017-09-08T16:15:10.943Z,14.80
2017-09-08T16:17:41.829Z,14.90
2017-09-08T16:20:14.697Z,14.90
2017-09-08T16:22:43.780Z,14.90
2017-09-08T16:25:12.165Z,14.80
2017-09-08T16:27:40.539Z,14.90
2017-09-08T16:30:09.632Z,14.90
2017-09-08T16:32:38.317Z,14.90
2017-09-08T16:35:06.691Z,14.90
2017-09-08T16:37:35.037Z,15.00
2017-09-08T16:40:03.413Z,15.00
2017-09-08T16:42:32.544Z,15.00
2017-09-08T16:45:00.972Z,15.00
2017-09-08T16:47:29.334Z,15.10
2017-09-08T16:49:57.705Z,15.20
2017-09-08T16:52:25.887Z,15.20
2017-09-08T16:54:54.310Z,15.20
2017-09-08T16:57:22.669Z,15.20
2017-09-08T16:59:51.155Z,15.20
2017-09-08T17:02:19.522Z,15.20
2017-09-08T17:04:47.916Z,15.30
2017-09-08T17:07:16.497Z,15.30
2017-09-08T17:09:44.876Z,15.20
2017-09-08T17:12:14.112Z,15.20
2017-09-08T17:14:42.545Z,15.20
2017-09-08T17:17:11.122Z,15.30
2017-09-08T17:19:39.608Z,15.20
2017-09-08T17:22:08.254Z,15.20
2017-09-08T17:24:36.603Z,15.20
2017-09-08T17:27:04.787Z,15.20
2017-09-08T17:29:33.939Z,15.10
2017-09-08T17:32:02.283Z,15.20
2017-09-08T17:34:31.802Z,15.20
2017-09-08T17:37:00.241Z,15.10
2017-09-08T17:39:28.615Z,15.10
2017-09-08T17:41:56.982Z,15.00
2017-09-08T17:44:25.521Z,15.10
2017-09-08T17:46:54.103Z,15.10
2017-09-08T17:49:22.492Z,15.10
2017-09-08T17:51:50.953Z,15.10
2017-09-08T17:54:19.312Z,15.10
2017-09-08T17:56:48.027Z,15.10
2017-09-08T17:59:19.867Z,15.10
2017-09-08T18:01:48.452Z,15.10
2017-09-08T18:04:16.839Z,15.10
2017-09-08T18:06:49.360Z,15.00
2017-09-08T18:09:17.718Z,15.10
2017-09-08T18:11:46.099Z,15.10
2017-09-08T18:14:14.455Z,15.00
2017-09-08T18:16:42.836Z,15.00
2017-09-08T18:19:11.209Z,15.00
2017-09-08T18:21:39.598Z,15.00
2017-09-08T18:24:07.775Z,15.00
2017-09-08T18:26:36.148Z,15.10
2017-09-08T18:29:04.530Z,15.10
2017-09-08T18:31:33.685Z,15.00
2017-09-08T18:34:02.251Z,15.00
2017-09-08T18:36:30.632Z,15.00
2017-09-08T18:38:59.002Z,15.00
2017-09-08T18:41:28.044Z,15.10
2017-09-08T18:43:58.090Z,15.10
2017-09-08T18:46:26.999Z,15.20
2017-09-08T18:48:55.380Z,15.10
2017-09-08T18:51:24.160Z,15.20
2017-09-08T18:53:53.936Z,15.20
2017-09-08T18:56:22.312Z,15.10
2017-09-08T18:58:50.708Z,15.20
2017-09-08T19:01:19.104Z,15.10
2017-09-08T19:03:47.476Z,15.20
2017-09-08T19:06:15.954Z,15.20
2017-09-08T19:08:44.401Z,15.30
2017-09-08T19:11:12.796Z,15.20
2017-09-08T19:13:41.205Z,15.30
2017-09-08T19:16:09.587Z,15.20
2017-09-08T19:18:38.150Z,15.30
2017-09-08T19:21:06.538Z,15.20
2017-09-08T19:23:35.007Z,15.20
2017-09-08T19:26:03.359Z,15.20
2017-09-08T19:28:31.730Z,15.20
2017-09-08T19:31:00.132Z,15.20
2017-09-08T19:33:28.705Z,15.20
2017-09-08T19:35:57.092Z,15.30
2017-09-08T19:38:25.466Z,15.30
2017-09-08T19:40:53.863Z,15.30
2017-09-08T19:43:22.049Z,15.30
2017-09-08T19:45:50.413Z,15.30
2017-09-08T19:48:19.611Z,15.30
2017-09-08T19:50:47.979Z,15.30
2017-09-08T19:53:16.366Z,15.30
2017-09-08T19:55:45.243Z,15.30
2017-09-08T19:58:16.265Z,15.30
2017-09-08T20:00:44.572Z,15.30
2017-09-08T20:03:15.378Z,15.30
2017-09-08T20:05:45.085Z,15.30
2017-09-08T20:08:13.595Z,15.20
2017-09-08T20:10:42.841Z,15.30
2017-09-08T20:13:11.248Z,15.30
2017-09-08T20:15:40.266Z,15.20
2017-09-08T20:18:08.655Z,15.20
2017-09-08T20:20:37.060Z,15.20
2017-09-08T20:23:05.459Z,15.20
2017-09-08T20:25:33.833Z,15.20
2017-09-08T20:28:02.235Z,15.20
2017-09-08T20:30:30.607Z,15.20
2017-09-08T20:32:59.456Z,15.20
2017-09-08T20:35:27.830Z,15.20
2017-09-08T20:37:56.277Z,15.20
2017-09-08T20:40:24.642Z,15.20
2017-09-08T20:42:53.024Z,15.20
2017-09-08T20:45:21.378Z,15.30
2017-09-08T20:47:49.732Z,15.30
2017-09-08T20:50:18.288Z,15.20
2017-09-08T20:52:46.657Z,15.30
2017-09-08T20:55:15.278Z,15.20
2017-09-08T20:57:43.724Z,15.20
2017-09-08T21:00:12.257Z,15.20
2017-09-08T21:02:40.766Z,15.20
2017-09-08T21:05:09.200Z,15.20
2017-09-08T21:07:36.862Z,15.20
2017-09-08T21:10:04.539Z,15.20
2017-09-08T21:12:33.473Z,15.20
2017-09-08T21:15:01.830Z,15.20
2017-09-08T21:17:30.195Z,15.20
2017-09-08T21:19:59.335Z,15.20
2017-09-08T21:22:27.516Z,15.20
2017-09-08T21:24:55.904Z,15.20
2017-09-08T21:27:26.183Z,15.20
2017-09-08T21:29:56.747Z,15.20
2017-09-08T21:32:25.127Z,15.20
2017-09-08T21:34:53.494Z,15.10
2017-09-08T21:37:22.103Z,15.10
2017-09-08T21:39:50.452Z,15.20
2017-09-08T21:42:18.821Z,15.20
2017-09-08T21:44:47.301Z,15.10
2017-09-08T21:47:15.752Z,15.10
2017-09-08T21:49:44.454Z,15.10
2017-09-08T21:52:12.836Z,15.10
2017-09-08T21:54:41.261Z,15.10
2017-09-08T21:57:09.635Z,15.00
2017-09-08T21:59:38.754Z,15.00
2017-09-08T22:02:07.234Z,15.00
2017-09-08T22:04:35.595Z,15.10
2017-09-08T22:07:04.053Z,15.00
2017-09-08T22:09:32.419Z,15.00
2017-09-08T22:12:00.787Z,15.00
2017-09-08T22:14:29.935Z,15.00
2017-09-08T22:29:53.299Z,15.00
2017-09-08T22:32:21.830Z,14.90
2017-09-08T22:34:50.227Z,14.90
2017-09-08T22:37:18.826Z,15.00
2017-09-08T22:39:47.281Z,14.90
2017-09-08T22:42:15.631Z,14.90
2017-09-08T22:44:44.015Z,14.90
2017-09-08T22:47:12.367Z,14.90
2017-09-08T22:49:40.747Z,14.90
2017-09-08T22:52:09.114Z,14.90
2017-09-08T22:54:37.512Z,14.90
2017-09-08T22:57:05.878Z,14.90
2017-09-08T22:59:33.909Z,14.80
2017-09-08T23:02:02.464Z,14.70
2017-09-08T23:04:30.904Z,14.80
2017-09-08T23:06:59.250Z,14.80
2017-09-08T23:09:27.623Z,14.80
2017-09-08T23:11:55.977Z,14.80
2017-09-08T23:14:24.343Z,14.80
2017-09-08T23:16:52.716Z,14.80
2017-09-08T23:19:21.084Z,14.80
2017-09-08T23:21:49.522Z,14.80
2017-09-08T23:24:17.872Z,14.70
2017-09-08T23:26:46.461Z,14.80
2017-09-08T23:29:14.951Z,14.70
2017-09-08T23:31:43.327Z,14.70
2017-09-08T23:34:11.904Z,14.70
2017-09-08T23:36:40.447Z,14.70
2017-09-08T23:39:08.823Z,14.70
2017-09-08T23:41:37.193Z,14.70
2017-09-08T23:44:05.555Z,14.70
2017-09-08T23:46:33.902Z,14.70
2017-09-08T23:49:02.425Z,14.70
2017-09-08T23:51:30.798Z,14.80
2017-09-08T23:53:59.142Z,14.90
2017-09-08T23:56:27.516Z,14.90
2017-09-08T23:58:56.640Z,14.80
